Terminal Aerodrome Forecast
Issued by NWS

Home | Current Version | Previous Version | Text Only | Print | Product List | Glossary On
Versions: 1 2 3 4 5 6 7 8 9 10 11 12 13 14 15 16 17 18 19 20 21
000
FTUS43 KDMX 211524 AAC
TAFOTM
TAF AMD
KOTM 211524Z 2115/2212 10006KT 3SM -DZ BR OVC005
      TEMPO 2116/2120 1SM -DZ BR OVC003
     FM212000 12008KT 3SM BR VCSH OVC005=

USA.gov is the U.S. government's official web portal to all federal, state and local government web resources and services.